• Join FlightAware (Why Join?)
  • Login
  • US Flag GB Flag 
02:22 EST


 

Airport Tracker/Info


-or-


 

Live Flight TrackerFlight Track Log ✈ SWA757 ✈ 25-Apr-2013 ✈ KSJC - KSAN

Flight Track Log - Related Links

Times and Time Zones

All times are in EDT time to prevent confusion due to time zone crossing. See the SWA757 flight status page for this flight to view local times or setup timezone preferences in your user account.

Time Position Orientation Groundspeed Altitude Reporting Facility
EDT Latitude Longitude Course Direction KTS MPH feet Rate Location/Type
23:14 37.4000 -121.9667 141° Southeast 168 193 2,100  Level Northern Cal TRACON
23:15 37.4333 -121.9500 22° Northeast 232 267 4,800 1,913 Climbing Northern Cal TRACON
23:17 37.3392 -121.8017 129° Southeast 238 274 8,700 1,788 Climbing Oakland Center
23:18 37.2769 -121.7311 138° Southeast 297 342 11,000 2,459 Climbing Oakland Center
23:19 36.9021 -121.4233 141° Southeast  Level Estimated
23:19 37.2047 -121.6511 139° Southeast 347 399 13,700  Level Oakland Center
23:20 37.1278 -121.5678 139° Southeast 364 419 16,900 3,049 Climbing Oakland Center
23:21 37.0508 -121.4864 140° Southeast 381 438 19,900 1,918 Climbing Oakland Center
23:22 36.9725 -121.3950 137° Southeast 385 443 20,800 1,623 Climbing Oakland Center
23:23 36.8775 -121.2911 139° Southeast 452 520 23,200 2,705 Climbing Oakland Center
23:24 36.7786 -121.1881 140° Southeast 430 495 26,300 2,488 Climbing Oakland Center
23:25 36.6861 -121.0875 139° Southeast 440 506 28,300 1,561 Climbing Oakland Center
23:26 36.5919 -120.9842 139° Southeast 450 518 29,500 1,525 Climbing Oakland Center
23:27 36.4967 -120.8800 139° Southeast 454 522 31,400 1,967 Climbing Oakland Center
23:28 36.4017 -120.7781 139° Southeast 453 521 33,500 1,721 Climbing Oakland Center
23:29 36.2881 -120.6539 139° Southeast 453 521 34,900 689 Climbing Oakland Center
23:30 36.2139 -120.5283 126° Southeast 454 522 34,900 738 Level Oakland Center
23:31 36.1414 -120.3944 124° Southeast 469 540 36,400 984 Climbing Oakland Center
23:32 36.0614 -120.2747 130° Southeast 451 519 36,900 246 Climbing Oakland Center
23:33 35.9511 -120.1961 150° Southeast 446 513 36,900  Level Oakland Center
23:34 35.8378 -120.1142 150° Southeast 466 536 36,900  Level Oakland Center
23:35 35.7253 -120.0353 150° Southeast 462 532 36,900 -344 Level Oakland Center
23:36 35.6142 -119.9528 149° Southeast 460 529 36,200 -1,180 Descending Oakland Center
23:37 35.5100 -119.8603 144° Southeast 457 526 34,500 -1,328 Descending Oakland Center
23:38 35.4047 -119.7700 145° Southeast 456 525 33,500 -787 Descending Oakland Center
23:39 35.3036 -119.6828 145° Southeast 447 514 32,900 -295 Descending Oakland Center
23:40 35.2014 -119.5947 145° Southeast 445 512 32,900  Level Oakland Center
23:41 35.0989 -119.5081 145° Southeast 447 514 32,900  Level Oakland Center
23:42 34.9967 -119.4217 145° Southeast 445 512 32,900  Level Oakland Center
23:43 34.8956 -119.3342 145° Southeast 445 512 32,900  Level Oakland Center
23:44 34.7925 -119.2461 145° Southeast 449 517 32,900  Level Oakland Center
23:45 34.6883 -119.1589 145° Southeast 453 521 32,900 45 Level Oakland Center
23:47 34.5542 -119.0475 146° Southeast 457 526 33,000 44 Climbing Los Angeles Center
23:48 34.4503 -118.9614 146° Southeast 453 521 33,000  Level Los Angeles Center
23:49 34.3481 -118.8733 145° Southeast 452 520 33,000 -145 Level Los Angeles Center
23:50 34.2339 -118.7517 139° Southeast 455 524 32,700 -634 Descending Los Angeles Center
23:51 34.1394 -118.6522 139° Southeast 453 521 31,700 -976 Descending Los Angeles Center
23:52 34.0461 -118.5525 138° Southeast 449 517 30,700 -968 Descending Los Angeles Center
23:53 33.9522 -118.4522 138° Southeast 449 517 29,700 -919 Descending Los Angeles Center
23:54 33.8644 -118.3425 134° Southeast 459 528 28,800 -968 Descending Los Angeles Center
23:55 33.7739 -118.2278 134° Southeast 452 520 27,700 -878 Descending Los Angeles Center
23:56 33.7053 -118.1400 133° Southeast 444 511 27,000 -390 Descending Los Angeles Center
23:57 33.6044 -118.0114 133° Southeast 440 506 26,900 -1,065 Descending Los Angeles Center
23:58 33.5219 -117.9083 134° Southeast 431 496 24,800 -2,302 Descending Los Angeles Center
23:58 33.4833 -117.8500 128° Southeast 407 468 23,600 -2,357 Descending Southern California TRACON
23:59 33.4000 -117.7500 135° Southeast 408 470 21,500 -2,121 Descending Southern California TRACON
00:00 33.3494 -117.6906 136° Southeast 406 467 20,100 -2,079 Descending Los Angeles Center
00:01 33.2753 -117.5972 134° Southeast 392 451 18,000 -1,926 Descending Los Angeles Center
00:01 33.2500 -117.5667 135° Southeast 389 448 17,500 -2,051 Descending Southern California TRACON
00:02 33.1667 -117.4833 140° Southeast 378 435 15,300 -2,135 Descending Southern California TRACON
00:03 33.1103 -117.4469 152° Southeast 370 426 13,800 -2,660 Descending Los Angeles Center
00:04 33.0283 -117.3822 146° Southeast 359 413 10,600 -1,887 Descending Los Angeles Center
00:05 32.9519 -117.3200 146° Southeast 340 391 9,900 -927 Descending Los Angeles Center
00:06 32.8972 -117.2778 147° Southeast 307 353 8,700 -1,559 Descending Los Angeles Center
00:07 32.8167 -117.2000 141° Southeast 269 310 6,600 -1,452 Descending Southern California TRACON
00:08 32.7950 -117.1319 111° Southeast 254 292 5,700 -850 Descending Los Angeles Center
00:09 32.7775 -117.0558 105° East 240 276 4,900 -938 Descending Los Angeles Center
00:10 32.7333 -117.0500 174° South 164 189 3,700 -1,429 Descending Southern California TRACON
00:11 32.7167 -117.1000 248° West 164 189 1,900 -1,474 Descending Southern California TRACON
00:12 32.7167 -117.1333 270° West 143 165 900 -800 Descending Southern California TRACON
00:13 32.7353 -117.1892 292° West 146 168 300 -545 Descending Los Angeles Center
00:15 32.7336 -117.1897 180° South  Level Estimated
00:22 32.7333 -117.1833 283° West  Level FlightAware Approximate